createdAt,value
2023-04-05T00:01:51.071Z,97127.44
2023-04-05T00:04:24.471Z,97123.69
2023-04-05T00:06:54.972Z,97128.34
2023-04-05T00:09:23.907Z,97144.28
2023-04-05T00:11:52.743Z,97148.81
2023-04-05T00:14:21.746Z,97152.69
2023-04-05T00:16:51.564Z,97149.63
2023-04-05T00:19:20.753Z,97164.63
2023-04-05T00:21:49.685Z,97161.19
2023-04-05T00:24:18.502Z,97159.00
2023-04-05T00:26:47.493Z,97173.50
2023-04-05T00:29:16.316Z,97172.53
2023-04-05T00:31:45.149Z,97182.81
2023-04-05T00:34:14.385Z,97185.69
2023-04-05T00:36:43.372Z,97193.28
2023-04-05T00:39:12.389Z,97184.81
2023-04-05T00:41:41.421Z,97197.19
2023-04-05T00:44:10.368Z,97195.72
2023-04-05T00:46:39.118Z,97204.53
2023-04-05T00:49:08.413Z,97205.63
2023-04-05T00:51:38.708Z,97202.34
2023-04-05T00:54:09.345Z,97210.72
2023-04-05T00:56:38.721Z,97217.69
2023-04-05T00:59:07.760Z,97212.00
2023-04-05T01:01:41.102Z,97209.38
2023-04-05T01:04:12.137Z,97223.56
2023-04-05T01:06:54.805Z,97226.47
2023-04-05T01:09:46.609Z,97229.88
2023-04-05T01:12:20.404Z,97230.81
2023-04-05T01:14:51.875Z,97223.66
2023-04-05T01:17:23.018Z,97241.16
2023-04-05T01:20:01.019Z,97234.69
2023-04-05T01:22:58.165Z,97241.72
2023-04-05T01:25:54.924Z,97247.34
2023-04-05T01:28:51.537Z,97258.72
2023-04-05T01:31:26.647Z,97259.53
2023-04-05T01:34:21.807Z,97265.16
2023-04-05T01:36:56.073Z,97263.88
2023-04-05T01:39:26.630Z,97275.00
2023-04-05T01:42:00.868Z,97277.50
2023-04-05T01:44:30.481Z,97276.47
2023-04-05T01:46:59.892Z,97282.78
2023-04-05T01:49:28.903Z,97287.84
2023-04-05T01:51:57.865Z,97280.41
2023-04-05T01:54:26.679Z,97291.00
2023-04-05T01:56:55.462Z,97288.03
2023-04-05T01:59:24.287Z,97284.97
2023-04-05T02:01:54.702Z,97295.00
2023-04-05T02:04:23.778Z,97284.16
2023-04-05T02:06:52.666Z,97289.34
2023-04-05T02:09:21.830Z,97294.06
2023-04-05T02:11:51.030Z,97283.19
2023-04-05T02:14:19.950Z,97293.13
2023-04-05T02:16:49.382Z,97302.81
2023-04-05T02:19:23.544Z,97305.69
2023-04-05T02:21:54.500Z,97303.97
2023-04-05T02:24:24.495Z,97316.09
2023-04-05T02:26:53.399Z,97314.34
2023-04-05T02:29:22.215Z,97304.84
2023-04-05T02:31:51.390Z,97309.28
2023-04-05T02:34:20.377Z,97321.09
2023-04-05T02:36:53.989Z,97315.50
2023-04-05T02:39:23.277Z,97323.09
2023-04-05T02:41:52.157Z,97316.66
2023-04-05T02:44:21.074Z,97324.97
2023-04-05T02:46:49.973Z,97317.47
2023-04-05T02:49:19.457Z,97317.75
2023-04-05T02:51:48.936Z,97320.09
2023-04-05T02:54:18.074Z,97316.13
2023-04-05T02:56:47.781Z,97337.31
2023-04-05T02:59:18.382Z,97334.00
2023-04-05T03:01:49.066Z,97333.59
2023-04-05T03:04:27.492Z,97331.03
2023-04-05T03:07:04.126Z,97325.53
2023-04-05T03:09:39.170Z,97335.72
2023-04-05T03:12:11.232Z,97329.25
2023-04-05T03:14:43.436Z,97336.25
2023-04-05T03:17:16.890Z,97339.41
2023-04-05T03:19:52.674Z,97362.41
2023-04-05T03:22:26.040Z,97341.09
2023-04-05T03:24:57.934Z,97343.78
2023-04-05T03:27:27.852Z,97346.53
2023-04-05T03:30:07.459Z,97343.69
2023-04-05T03:32:40.979Z,97343.53
2023-04-05T03:35:23.424Z,97350.44
2023-04-05T03:37:52.485Z,97355.81
2023-04-05T03:40:21.315Z,97355.38
2023-04-05T03:42:51.210Z,97359.88
2023-04-05T03:45:23.999Z,97355.13
2023-04-05T03:47:55.629Z,97357.66
2023-04-05T03:50:24.796Z,97357.19
2023-04-05T03:52:54.487Z,97349.75
2023-04-05T03:55:24.307Z,97346.16
2023-04-05T03:57:54.700Z,97360.69
2023-04-05T04:00:29.392Z,97346.84
2023-04-05T04:03:29.653Z,97348.25
2023-04-05T04:05:59.975Z,97363.34
2023-04-05T04:08:30.374Z,97331.16
2023-04-05T04:11:01.691Z,97352.38
2023-04-05T04:13:34.495Z,97350.13
2023-04-05T04:16:39.000Z,97346.84
2023-04-05T04:19:25.560Z,97359.78
2023-04-05T04:22:10.694Z,97359.06
2023-04-05T04:25:15.313Z,97363.31
2023-04-05T04:28:25.572Z,97367.88
2023-04-05T04:31:14.467Z,97361.13
2023-04-05T04:33:58.397Z,97365.22
2023-04-05T04:37:01.230Z,97353.56
2023-04-05T04:39:49.761Z,97385.16
2023-04-05T04:42:39.411Z,97374.78
2023-04-05T04:45:38.307Z,97394.50
2023-04-05T04:48:38.552Z,97386.69
2023-04-05T04:51:19.109Z,97388.00
2023-04-05T04:53:47.877Z,97372.72
2023-04-05T04:56:17.086Z,97380.72
2023-04-05T04:58:45.892Z,97398.66
2023-04-05T05:01:15.637Z,97410.53
2023-04-05T05:03:44.998Z,97399.81
2023-04-05T05:06:18.295Z,97408.03
2023-04-05T05:08:49.836Z,97385.66
2023-04-05T05:11:18.834Z,97395.41
2023-04-05T05:13:51.206Z,97402.41
2023-04-05T05:16:24.733Z,97399.25
2023-04-05T05:18:53.625Z,97404.75
2023-04-05T05:21:24.671Z,97410.50
2023-04-05T05:23:57.474Z,97419.28
2023-04-05T05:26:29.219Z,97414.06
2023-04-05T05:29:03.051Z,97414.09
2023-04-05T05:31:35.085Z,97417.88
2023-04-05T05:34:04.162Z,97414.88
2023-04-05T05:36:33.344Z,97408.06
2023-04-05T05:39:02.117Z,97413.56
2023-04-05T05:41:30.915Z,97423.19
2023-04-05T05:43:59.715Z,97428.16
2023-04-05T05:46:28.525Z,97426.13
2023-04-05T05:48:57.496Z,97423.88
2023-04-05T05:51:26.492Z,97437.97
2023-04-05T05:53:55.621Z,97422.06
2023-04-05T05:56:24.437Z,97414.41
2023-04-05T05:58:53.762Z,97423.03
2023-04-05T06:01:23.826Z,97422.38
2023-04-05T06:03:53.257Z,97424.84
2023-04-05T06:06:22.684Z,97421.13
2023-04-05T06:08:52.035Z,97417.28
2023-04-05T06:11:22.384Z,97430.69
2023-04-05T06:13:57.752Z,97435.56
2023-04-05T06:16:27.714Z,97425.31
2023-04-05T06:18:57.077Z,97418.06
2023-04-05T06:21:26.843Z,97427.09
2023-04-05T06:23:55.881Z,97438.59
2023-04-05T06:26:27.863Z,97430.25
2023-04-05T06:28:57.292Z,97432.47
2023-04-05T06:31:32.960Z,97431.03
2023-04-05T06:34:02.370Z,97430.91
2023-04-05T06:36:35.149Z,97437.81
2023-04-05T06:39:04.121Z,97441.03
2023-04-05T06:41:32.997Z,97431.47
2023-04-05T06:44:01.906Z,97417.88
2023-04-05T06:46:30.912Z,97422.47
2023-04-05T06:49:03.542Z,97423.16
2023-04-05T06:51:33.153Z,97423.34
2023-04-05T06:54:01.954Z,97432.50
2023-04-05T06:56:31.151Z,97432.50
2023-04-05T06:59:00.363Z,97429.63
2023-04-05T07:01:30.347Z,97447.31
2023-04-05T07:03:59.547Z,97439.34
2023-04-05T07:06:28.389Z,97435.38
2023-04-05T07:08:57.176Z,97435.78
2023-04-05T07:11:26.191Z,97440.81
2023-04-05T07:13:54.945Z,97435.28
2023-04-05T07:16:23.956Z,97438.56
2023-04-05T07:18:53.102Z,97437.88
2023-04-05T07:21:22.125Z,97433.69
2023-04-05T07:23:51.308Z,97437.53
2023-04-05T07:26:20.850Z,97427.50
2023-04-05T07:28:49.662Z,97439.84
2023-04-05T07:31:18.609Z,97441.75
2023-04-05T07:33:47.593Z,97451.31
2023-04-05T07:36:16.490Z,97442.00
2023-04-05T07:38:45.545Z,97444.56
2023-04-05T07:41:17.146Z,97444.16
2023-04-05T07:43:46.060Z,97437.81
2023-04-05T07:46:14.931Z,97434.88
2023-04-05T07:48:43.984Z,97439.06
2023-04-05T07:51:12.949Z,97423.53
2023-04-05T07:53:43.400Z,97428.59
2023-04-05T07:56:16.657Z,97439.06
2023-04-05T07:58:45.682Z,97439.53
2023-04-05T08:01:15.261Z,97438.66
2023-04-05T08:03:44.684Z,97443.31
2023-04-05T08:06:18.234Z,97432.44
2023-04-05T08:08:48.022Z,97431.72
2023-04-05T08:11:16.793Z,97432.72
2023-04-05T08:13:45.838Z,97438.19
2023-04-05T08:16:15.599Z,97436.59
2023-04-05T08:18:44.481Z,97438.41
2023-04-05T08:21:13.274Z,97452.84
2023-04-05T08:23:42.457Z,97437.75
2023-04-05T08:26:11.362Z,97453.22
2023-04-05T08:28:40.199Z,97445.84
2023-04-05T08:31:09.454Z,97430.69
2023-04-05T08:33:39.426Z,97443.44
2023-04-05T08:36:09.822Z,97447.97
2023-04-05T08:38:38.606Z,97458.84
2023-04-05T08:41:32.358Z,97458.28
2023-04-05T08:44:04.852Z,97447.16
2023-04-05T08:46:36.319Z,97467.22
2023-04-05T08:49:09.049Z,97459.34
2023-04-05T08:51:42.005Z,97454.97
2023-04-05T08:54:10.949Z,97454.59
2023-04-05T08:56:40.020Z,97464.13
2023-04-05T08:59:13.586Z,97466.56
2023-04-05T09:01:45.239Z,97457.13
2023-04-05T09:04:24.776Z,97466.91
2023-04-05T09:06:58.383Z,97464.91
2023-04-05T09:09:29.360Z,97469.19
2023-04-05T09:11:58.640Z,97479.94
2023-04-05T09:14:28.666Z,97473.38
2023-04-05T09:16:59.215Z,97472.56
2023-04-05T09:19:28.047Z,97472.31
2023-04-05T09:22:05.066Z,97479.22
2023-04-05T09:24:42.663Z,97472.31
2023-04-05T09:27:13.151Z,97481.09
2023-04-05T09:29:48.188Z,97474.72
2023-04-05T09:32:22.047Z,97482.69
2023-04-05T09:34:54.419Z,97483.25
2023-04-05T09:37:26.485Z,97484.03
2023-04-05T09:40:04.726Z,97476.88
2023-04-05T09:42:47.810Z,97483.25
2023-04-05T09:45:19.023Z,97471.84
2023-04-05T09:47:59.102Z,97467.56
2023-04-05T09:50:28.780Z,97481.66
2023-04-05T09:53:17.334Z,97478.75
2023-04-05T09:55:48.172Z,97470.22
2023-04-05T09:58:21.837Z,97478.22
2023-04-05T10:01:06.190Z,97473.97
2023-04-05T10:03:50.551Z,97481.13
2023-04-05T10:06:19.923Z,97474.50
2023-04-05T10:08:49.656Z,97467.06
2023-04-05T10:11:22.123Z,97459.38
2023-04-05T10:13:52.353Z,97467.03
2023-04-05T10:16:24.451Z,97470.72
2023-04-05T10:18:54.474Z,97468.56
2023-04-05T10:21:29.445Z,97473.31
2023-04-05T10:24:37.462Z,97463.22
2023-04-05T10:27:16.798Z,97474.34
2023-04-05T10:29:57.294Z,97462.13
2023-04-05T10:32:42.819Z,97470.53
2023-04-05T10:35:50.443Z,97468.63
2023-04-05T10:38:31.076Z,97462.50
2023-04-05T10:41:17.608Z,97464.31
2023-04-05T10:43:47.229Z,97474.06
2023-04-05T10:46:24.184Z,97460.78
2023-04-05T10:49:09.908Z,97464.91
2023-04-05T10:51:39.885Z,97461.94
2023-04-05T10:54:11.149Z,97472.94
2023-04-05T10:56:40.824Z,97473.97
2023-04-05T10:59:11.095Z,97470.72
2023-04-05T11:01:41.896Z,97476.47
2023-04-05T11:04:16.539Z,97468.97
2023-04-05T11:06:51.212Z,97470.22
2023-04-05T11:09:22.109Z,97468.59
2023-04-05T11:11:53.128Z,97474.88
2023-04-05T11:14:39.679Z,97475.81
2023-04-05T11:17:27.047Z,97472.03
2023-04-05T11:20:06.180Z,97464.78
2023-04-05T11:22:34.973Z,97486.00
2023-04-05T11:25:04.999Z,97480.34
2023-04-05T11:27:38.295Z,97479.66
2023-04-05T11:30:10.802Z,97479.63
2023-04-05T11:32:48.798Z,97484.03
2023-04-05T11:35:25.841Z,97491.59
2023-04-05T11:38:01.012Z,97484.59
2023-04-05T11:40:37.909Z,97487.41
2023-04-05T11:43:12.922Z,97486.22
2023-04-05T11:45:47.891Z,97478.97
2023-04-05T11:48:16.826Z,97485.63
2023-04-05T11:50:49.002Z,97486.03
2023-04-05T11:53:19.256Z,97485.94
2023-04-05T11:55:51.905Z,97491.88
2023-04-05T11:58:24.251Z,97495.72
2023-04-05T12:01:02.617Z,97497.72
2023-04-05T12:03:32.154Z,97490.19
2023-04-05T12:06:03.301Z,97500.44
2023-04-05T12:08:42.867Z,97491.06
2023-04-05T12:11:13.817Z,97504.81
2023-04-05T12:13:42.883Z,97502.34
2023-04-05T12:16:12.144Z,97502.94
2023-04-05T12:18:41.541Z,97511.00
2023-04-05T12:21:10.676Z,97509.66
2023-04-05T12:23:39.890Z,97513.47
2023-04-05T12:26:09.212Z,97507.06
2023-04-05T12:28:53.905Z,97509.50
2023-04-05T12:31:45.364Z,97514.69
2023-04-05T12:34:16.541Z,97517.66
2023-04-05T12:36:47.243Z,97518.84
2023-04-05T12:39:20.591Z,97516.91
2023-04-05T12:42:01.706Z,97520.00
2023-04-05T12:44:31.940Z,97519.66
2023-04-05T12:47:09.830Z,97516.72
2023-04-05T12:49:39.370Z,97520.59
2023-04-05T12:52:08.384Z,97529.22
2023-04-05T12:54:37.192Z,97518.22
2023-04-05T12:57:09.402Z,97516.63
2023-04-05T12:59:38.779Z,97519.72
2023-04-05T13:02:09.071Z,97512.97
2023-04-05T13:04:38.300Z,97518.22
2023-04-05T13:07:07.218Z,97517.09
2023-04-05T13:09:37.529Z,97519.94
2023-04-05T13:12:07.329Z,97521.22
2023-04-05T13:14:36.181Z,97514.03
2023-04-05T13:17:05.133Z,97512.66
2023-04-05T13:19:33.859Z,97514.13
2023-04-05T13:22:02.680Z,97520.66
2023-04-05T13:24:32.072Z,97514.47
2023-04-05T13:27:00.991Z,97513.00
2023-04-05T13:29:29.892Z,97495.53
2023-04-05T13:31:58.975Z,97518.94
2023-04-05T13:34:27.958Z,97506.94
2023-04-05T13:36:56.723Z,97514.47
2023-04-05T13:39:25.538Z,97504.97
2023-04-05T13:41:54.531Z,97513.13
2023-04-05T13:44:23.518Z,97516.88
2023-04-05T13:46:52.510Z,97506.47
2023-04-05T13:49:21.456Z,97512.19
2023-04-05T13:51:50.306Z,97507.50
2023-04-05T13:54:19.676Z,97511.88
2023-04-05T13:56:48.689Z,97512.22
2023-04-05T13:59:19.840Z,97508.44
2023-04-05T14:01:49.466Z,97512.53
2023-04-05T14:04:19.152Z,97505.91
2023-04-05T14:06:48.040Z,97503.50
2023-04-05T14:09:16.905Z,97512.22
2023-04-05T14:11:45.895Z,97504.88
2023-04-05T14:14:15.003Z,97506.00
2023-04-05T14:16:43.920Z,97510.44
2023-04-05T14:19:12.824Z,97506.69
2023-04-05T14:21:41.859Z,97509.31
2023-04-05T14:24:10.989Z,97505.88
2023-04-05T14:26:40.557Z,97504.63
2023-04-05T14:29:09.361Z,97493.91
2023-04-05T14:31:38.257Z,97493.00
2023-04-05T14:34:07.045Z,97488.53
2023-04-05T14:36:35.894Z,97486.25
2023-04-05T14:39:04.955Z,97487.84
2023-04-05T14:41:34.113Z,97484.41
2023-04-05T14:44:03.221Z,97482.59
2023-04-05T14:46:32.111Z,97477.78
2023-04-05T14:49:00.956Z,97482.81
2023-04-05T14:51:30.002Z,97476.19
2023-04-05T14:53:58.745Z,97479.41
2023-04-05T14:56:27.630Z,97482.50
2023-04-05T14:58:56.550Z,97474.72
2023-04-05T15:01:26.710Z,97474.91
2023-04-05T15:03:56.004Z,97481.22
2023-04-05T15:06:24.891Z,97483.47
2023-04-05T15:08:53.769Z,97478.69
2023-04-05T15:11:22.788Z,97483.56
2023-04-05T15:13:51.817Z,97480.03
2023-04-05T15:16:21.577Z,97473.16
2023-04-05T15:18:51.668Z,97463.91
2023-04-05T15:21:20.950Z,97466.53
2023-04-05T15:23:50.150Z,97456.25
2023-04-05T15:26:19.031Z,97453.41
2023-04-05T15:28:47.916Z,97455.91
2023-04-05T15:31:16.834Z,97453.28
2023-04-05T15:33:46.186Z,97464.63
2023-04-05T15:36:15.137Z,97458.78
2023-04-05T15:38:44.218Z,97447.91
2023-04-05T15:41:14.725Z,97462.84
2023-04-05T15:43:43.573Z,97467.09
2023-04-05T15:46:12.570Z,97468.94
2023-04-05T15:48:41.737Z,97465.16
2023-04-05T15:51:12.670Z,97462.75
2023-04-05T15:53:41.810Z,97452.09
2023-04-05T15:56:11.266Z,97448.78
2023-04-05T15:58:40.198Z,97453.34
2023-04-05T16:01:10.238Z,97449.94
2023-04-05T16:03:39.847Z,97449.13
2023-04-05T16:06:09.005Z,97446.16
2023-04-05T16:08:38.082Z,97446.34
2023-04-05T16:11:09.140Z,97446.03
2023-04-05T16:13:38.031Z,97428.19
2023-04-05T16:16:07.446Z,97438.00
2023-04-05T16:18:36.302Z,97437.88
2023-04-05T16:21:05.813Z,97440.16
2023-04-05T16:23:34.813Z,97439.56
2023-04-05T16:26:04.549Z,97438.19
2023-04-05T16:28:36.931Z,97428.38
2023-04-05T16:31:06.377Z,97434.63
2023-04-05T16:33:37.510Z,97434.16
2023-04-05T16:36:08.017Z,97426.16
2023-04-05T16:38:37.142Z,97417.91
2023-04-05T16:41:05.988Z,97424.75
2023-04-05T16:43:34.823Z,97427.84
2023-04-05T16:46:06.494Z,97426.47
2023-04-05T16:48:36.055Z,97428.06
2023-04-05T16:51:06.987Z,97411.72
2023-04-05T16:53:36.145Z,97414.34
2023-04-05T16:56:05.067Z,97418.59
2023-04-05T16:58:34.094Z,97418.13
2023-04-05T17:01:04.018Z,97415.50
2023-04-05T17:03:33.196Z,97415.66
2023-04-05T17:06:02.450Z,97421.69
2023-04-05T17:08:31.404Z,97406.16
2023-04-05T17:11:00.261Z,97398.75
2023-04-05T17:13:29.228Z,97407.41
2023-04-05T17:15:58.241Z,97406.84
2023-04-05T17:18:27.747Z,97405.09
2023-04-05T17:20:56.992Z,97395.28
2023-04-05T17:23:26.360Z,97407.88
2023-04-05T17:25:55.157Z,97410.25
2023-04-05T17:28:24.442Z,97401.81
2023-04-05T17:30:53.425Z,97405.38
2023-04-05T17:33:22.402Z,97395.66
2023-04-05T17:35:51.357Z,97400.47
2023-04-05T17:38:20.300Z,97395.09
2023-04-05T17:40:49.321Z,97397.72
2023-04-05T17:43:18.197Z,97393.13
2023-04-05T17:45:47.204Z,97385.25
2023-04-05T17:48:16.147Z,97392.03
2023-04-05T17:50:45.896Z,97397.84
2023-04-05T17:53:17.139Z,97393.19
2023-04-05T17:55:46.353Z,97380.28
2023-04-05T17:58:15.304Z,97368.97
2023-04-05T18:00:45.738Z,97378.09
2023-04-05T18:03:14.887Z,97369.88
2023-04-05T18:05:44.151Z,97371.69
2023-04-05T18:08:13.038Z,97365.50
2023-04-05T18:10:42.131Z,97366.56
2023-04-05T18:13:11.123Z,97368.59
2023-04-05T18:15:40.943Z,97364.81
2023-04-05T18:18:09.959Z,97361.13
2023-04-05T18:20:38.836Z,97348.16
2023-04-05T18:23:08.563Z,97351.59
2023-04-05T18:25:37.394Z,97352.47
2023-04-05T18:28:19.394Z,97339.66
2023-04-05T18:30:51.831Z,97337.81
2023-04-05T18:33:23.146Z,97329.19
2023-04-05T18:35:53.047Z,97331.69
2023-04-05T18:38:22.476Z,97331.09
2023-04-05T18:40:51.445Z,97325.47
2023-04-05T18:43:20.481Z,97327.53
2023-04-05T18:45:49.345Z,97321.13
2023-04-05T18:48:18.297Z,97329.22
2023-04-05T18:50:48.561Z,97316.13
2023-04-05T18:53:17.483Z,97322.97
2023-04-05T18:55:46.647Z,97325.13
2023-04-05T18:58:15.539Z,97315.09
2023-04-05T19:00:45.150Z,97319.91
2023-04-05T19:03:17.137Z,97312.47
2023-04-05T19:05:54.016Z,97304.81
2023-04-05T19:08:22.637Z,97309.94
2023-04-05T19:10:51.783Z,97312.03
2023-04-05T19:13:20.972Z,97306.53
2023-04-05T19:15:49.941Z,97305.56
2023-04-05T19:18:20.285Z,97305.00
2023-04-05T19:20:49.180Z,97307.84
2023-04-05T19:23:18.078Z,97297.22
2023-04-05T19:25:46.982Z,97294.16
2023-04-05T19:28:16.276Z,97291.97
2023-04-05T19:30:46.188Z,97292.56
2023-04-05T19:33:19.646Z,97294.38
2023-04-05T19:35:50.464Z,97292.41
2023-04-05T19:38:22.695Z,97283.97
2023-04-05T19:40:51.987Z,97274.38
2023-04-05T19:43:21.125Z,97278.38
2023-04-05T19:45:56.824Z,97279.22
2023-04-05T19:48:42.011Z,97279.06
2023-04-05T19:51:12.930Z,97276.66
2023-04-05T19:53:49.912Z,97265.25
2023-04-05T19:56:24.473Z,97266.91
2023-04-05T19:59:14.316Z,97270.59
2023-04-05T20:01:47.895Z,97268.25
2023-04-05T20:04:21.476Z,97260.25
2023-04-05T20:06:54.870Z,97258.28
2023-04-05T20:09:26.806Z,97267.16
2023-04-05T20:11:58.663Z,97251.44
2023-04-05T20:14:30.941Z,97256.09
2023-04-05T20:16:59.944Z,97256.09
2023-04-05T20:19:31.300Z,97257.69
2023-04-05T20:22:06.819Z,97250.06
2023-04-05T20:24:39.381Z,97240.81
2023-04-05T20:27:08.144Z,97236.41
2023-04-05T20:29:36.979Z,97238.00
2023-04-05T20:32:06.927Z,97229.19
2023-04-05T20:34:39.109Z,97234.28
2023-04-05T20:37:10.366Z,97234.28
2023-04-05T20:39:39.336Z,97227.44
2023-04-05T20:42:10.059Z,97219.44
2023-04-05T20:44:39.264Z,97213.25
2023-04-05T20:47:08.581Z,97216.09
2023-04-05T20:49:37.319Z,97214.69
2023-04-05T20:52:08.234Z,97214.16
2023-04-05T20:54:37.368Z,97216.19
2023-04-05T20:57:06.216Z,97222.06
2023-04-05T20:59:34.944Z,97217.00
2023-04-05T21:02:06.025Z,97215.66
2023-04-05T21:04:35.448Z,97212.66
2023-04-05T21:07:04.558Z,97211.91
2023-04-05T21:09:33.340Z,97212.31
2023-04-05T21:12:02.080Z,97201.28
2023-04-05T21:14:30.796Z,97202.88
2023-04-05T21:16:59.641Z,97199.66
2023-04-05T21:19:28.437Z,97205.50
2023-04-05T21:21:57.267Z,97207.94
2023-04-05T21:24:26.012Z,97195.50
2023-04-05T21:26:54.883Z,97196.66
2023-04-05T21:29:23.593Z,97196.09
2023-04-05T21:31:52.610Z,97200.72
2023-04-05T21:34:21.535Z,97190.25
2023-04-05T21:36:50.375Z,97188.47
2023-04-05T21:39:19.133Z,97188.25
2023-04-05T21:41:47.882Z,97187.03
2023-04-05T21:44:16.778Z,97187.03
2023-04-05T21:46:45.514Z,97185.00
2023-04-05T21:49:14.369Z,97183.25
2023-04-05T21:51:43.183Z,97174.44
2023-04-05T21:54:11.994Z,97178.84
2023-04-05T21:56:41.200Z,97184.06
2023-04-05T21:59:10.126Z,97180.03
2023-04-05T22:01:39.957Z,97178.03
2023-04-05T22:04:08.907Z,97181.22
2023-04-05T22:06:37.615Z,97177.97
2023-04-05T22:09:06.517Z,97168.88
2023-04-05T22:11:35.962Z,97168.00
2023-04-05T22:14:04.727Z,97170.78
2023-04-05T22:16:33.643Z,97163.16
2023-04-05T22:19:02.482Z,97155.66
2023-04-05T22:21:31.362Z,97168.94
2023-04-05T22:24:00.333Z,97156.88
2023-04-05T22:26:29.923Z,97151.09
2023-04-05T22:28:58.856Z,97154.88
2023-04-05T22:31:27.551Z,97151.09
2023-04-05T22:33:56.303Z,97149.13
2023-04-05T22:36:25.178Z,97144.09
2023-04-05T22:38:54.509Z,97143.31
2023-04-05T22:41:23.573Z,97143.75
2023-04-05T22:43:52.398Z,97139.91
2023-04-05T22:46:21.318Z,97141.47
2023-04-05T22:48:50.018Z,97132.84
2023-04-05T22:51:18.879Z,97134.81
2023-04-05T22:53:47.825Z,97138.25
2023-04-05T22:56:18.219Z,97135.19
2023-04-05T22:58:47.133Z,97131.72
2023-04-05T23:01:17.203Z,97129.84
2023-04-05T23:03:46.904Z,97122.78
2023-04-05T23:06:16.217Z,97133.34
2023-04-05T23:08:44.948Z,97117.00
2023-04-05T23:11:13.804Z,97120.59
2023-04-05T23:13:42.553Z,97121.16
2023-04-05T23:16:11.502Z,97120.66
2023-04-05T23:18:40.518Z,97119.56
2023-04-05T23:21:09.395Z,97129.38
2023-04-05T23:23:38.343Z,97123.50
2023-04-05T23:26:07.141Z,97122.44
2023-04-05T23:28:35.921Z,97128.22
2023-04-05T23:31:04.881Z,97126.09
2023-04-05T23:33:33.713Z,97119.31
2023-04-05T23:36:02.700Z,97111.38
2023-04-05T23:38:32.179Z,97115.97
2023-04-05T23:41:01.150Z,97106.63
2023-04-05T23:43:29.944Z,97107.56
2023-04-05T23:45:58.760Z,97099.63
2023-04-05T23:48:28.003Z,97102.22
2023-04-05T23:50:56.906Z,97097.25
2023-04-05T23:53:25.683Z,97092.25
2023-04-05T23:55:56.392Z,97094.91
2023-04-05T23:58:25.179Z,97089.31
